Casa Grande, AZ

7:57 AM MST on May 28, 2017 (GMT -0700)
Casa Grande Municipal

Weather History for KCGZ - November, 2013

Change the Weather History Date:

Wednesday, November 27, 2013

  Actual Average Record
Temperature  
Mean Temperature 60 °F -  
Max Temperature 66 °F 66 °F 84 °F (2014)
Min Temperature 53 °F 40 °F 30 °F (2001)
Degree Days  
Heating Degree Days 6    
Growing Degree Days 10 (Base 50)    
Moisture  
Dew Point 27 °F    
Average Humidity 31    
Maximum Humidity 38    
Minimum Humidity 23    
Precipitation  
Precipitation 0.00 in - - ()
Sea Level Pressure  
Sea Level Pressure 30.07 in    
Wind  
Wind Speed 18 mph (ENE)    
Max Wind Speed 23 mph    
Max Gust Speed 30 mph    
Visibility 10 miles    
Events      
Averages and records for this station are not official NWS values.
T = Trace of Precipitation, MM = Missing Value Source: NWS Daily Summary

Daily Weather History Graph

Daily Weather History Graph

Search for Another Location

Airport or City:

Trip Planner

Search our weather history database for the weather conditions in past years. The results will help you decide how hot, cold, wet, or windy it might be!

Date:

Astronomy

Nov. 27, 2013 Rise Set
Actual Time 7:08 AM MST 5:20 PM MST
Civil Twilight 6:41 AM MST 5:47 PM MST
Nautical Twilight 6:11 AM MST 6:17 PM MST
Astronomical Twilight 5:41 AM MST 6:47 PM MST
Moon 1:31 AM MST (11/27) 1:44 PM MST (11/27)
Length of Visible Light 11h 05m
Length of Day
10h 12m
Waning Crescent, 31% of the Moon is Illuminated
Nov 27
Waning Crescent
Dec 2
New
Dec 9
First Quarter
Dec 17
Full
Dec 25
Last Quarter

Hourly Weather History & Observations

Time (MST) Temp. Dew Point Humidity Pressure Visibility Wind Dir Wind Speed Gust Speed Precip Events Conditions
12:15 AM 55.4 °F 30.2 °F 38% 30.15 in 10.0 mi ENE 17.3 mph - N/A   Clear
12:35 AM 55.4 °F 30.2 °F 38% 30.15 in 10.0 mi ENE 18.4 mph - N/A   Clear
12:55 AM 55.4 °F 30.2 °F 38% 30.14 in 10.0 mi ENE 16.1 mph 23.0 mph N/A   Clear
1:15 AM 55.4 °F 30.2 °F 38% 30.13 in 10.0 mi ENE 17.3 mph - N/A   Clear
1:35 AM 55.4 °F 30.2 °F 38% 30.13 in 10.0 mi ENE 19.6 mph 23.0 mph N/A   Clear
1:55 AM 55.4 °F 28.4 °F 36% 30.12 in 10.0 mi ENE 18.4 mph - N/A   Clear
2:15 AM 55.4 °F 28.4 °F 36% 30.12 in 10.0 mi ENE 15.0 mph - N/A   Clear
2:35 AM 55.4 °F 28.4 °F 36% 30.12 in 10.0 mi ENE 18.4 mph - N/A   Clear
2:55 AM 55.4 °F 28.4 °F 36% 30.12 in 10.0 mi ENE 19.6 mph - N/A   Clear
3:15 AM 55.4 °F 28.4 °F 36% 30.12 in 10.0 mi ENE 18.4 mph 25.3 mph N/A   Clear
3:35 AM 55.4 °F 28.4 °F 36% 30.12 in 10.0 mi ENE 19.6 mph 24.2 mph N/A   Clear
3:55 AM 55.4 °F 28.4 °F 36% 30.11 in 10.0 mi ENE 18.4 mph 26.5 mph N/A   Clear
4:15 AM 55.4 °F 28.4 °F 36% 30.10 in 10.0 mi ENE 23.0 mph 28.8 mph N/A   Clear
4:35 AM 55.4 °F 28.4 °F 36% 30.11 in 10.0 mi ENE 21.9 mph 27.6 mph N/A   Clear
4:55 AM 55.4 °F 28.4 °F 36% 30.11 in 10.0 mi ENE 21.9 mph 26.5 mph N/A   Clear
5:15 AM 55.4 °F 28.4 °F 36% 30.11 in 10.0 mi ENE 21.9 mph 28.8 mph N/A   Clear
5:35 AM 53.6 °F 28.4 °F 38% 30.12 in 10.0 mi ENE 19.6 mph 23.0 mph N/A   Clear
5:55 AM 53.6 °F 28.4 °F 38% 30.12 in 10.0 mi ENE 17.3 mph - N/A   Clear
6:15 AM 53.6 °F 28.4 °F 38% 30.12 in 10.0 mi ENE 16.1 mph - N/A   Clear
6:35 AM 53.6 °F 28.4 °F 38% 30.12 in 10.0 mi ENE 18.4 mph - N/A   Clear
6:55 AM 55.4 °F 26.6 °F 33% 30.12 in 10.0 mi ENE 19.6 mph 26.5 mph N/A   Clear
7:15 AM 53.6 °F 26.6 °F 35% 30.11 in 10.0 mi ENE 21.9 mph 26.5 mph N/A   Clear
7:35 AM 53.6 °F 26.6 °F 35% 30.12 in 10.0 mi ENE 19.6 mph 26.5 mph N/A   Clear
7:55 AM 53.6 °F 26.6 °F 35% 30.12 in 10.0 mi ENE 18.4 mph 26.5 mph N/A   Clear
8:15 AM 53.6 °F 28.4 °F 38% 30.12 in 10.0 mi ENE 19.6 mph - N/A   Clear
8:35 AM 55.4 °F 28.4 °F 36% 30.12 in 10.0 mi ENE 17.3 mph - N/A   Clear
8:55 AM 57.2 °F 28.4 °F 33% 30.11 in 10.0 mi ENE 21.9 mph 28.8 mph N/A   Clear
9:15 AM 57.2 °F 28.4 °F 33% 30.11 in 10.0 mi ENE 19.6 mph 25.3 mph N/A   Clear
9:35 AM 57.2 °F 28.4 °F 33% 30.12 in 10.0 mi ENE 19.6 mph 27.6 mph N/A   Clear
9:55 AM 59.0 °F 28.4 °F 31% 30.11 in 10.0 mi ENE 20.7 mph - N/A   Clear
10:15 AM 59.0 °F 26.6 °F 29% 30.11 in 10.0 mi ENE 18.4 mph 28.8 mph N/A   Clear
10:35 AM 60.8 °F 28.4 °F 29% 30.10 in 10.0 mi ENE 23.0 mph 29.9 mph N/A   Clear
10:55 AM 60.8 °F 28.4 °F 29% 30.10 in 10.0 mi East 21.9 mph - N/A   Clear
11:15 AM 60.8 °F 26.6 °F 27% 30.09 in 10.0 mi ENE 21.9 mph - N/A   Clear
11:35 AM 62.6 °F 28.4 °F 27% 30.08 in 10.0 mi ENE 21.9 mph 25.3 mph N/A   Clear
11:55 AM 64.4 °F 26.6 °F 24% 30.07 in 10.0 mi ENE 20.7 mph 26.5 mph N/A   Clear
12:15 PM 66.2 °F 28.4 °F 24% 30.05 in 10.0 mi ENE 17.3 mph - N/A   Clear
12:35 PM 66.2 °F 26.6 °F 23% 30.04 in 10.0 mi ENE 19.6 mph 26.5 mph N/A   Clear
12:55 PM 66.2 °F 26.6 °F 23% 30.03 in 10.0 mi East 21.9 mph - N/A   Clear
1:15 PM 66.2 °F 26.6 °F 23% 30.02 in 10.0 mi ENE 19.6 mph - N/A   Clear
1:35 PM 66.2 °F 26.6 °F 23% 30.02 in 10.0 mi ENE 19.6 mph - N/A   Clear
1:55 PM 66.2 °F 26.6 °F 23% 30.01 in 10.0 mi ENE 21.9 mph - N/A   Clear
2:15 PM 66.2 °F 26.6 °F 23% 30.00 in 10.0 mi ENE 18.4 mph 25.3 mph N/A   Clear
2:35 PM 66.2 °F 26.6 °F 23% 30.01 in 10.0 mi ENE 19.6 mph 26.5 mph N/A   Clear
2:55 PM 64.4 °F 26.6 °F 24% 30.01 in 10.0 mi ENE 17.3 mph - N/A   Clear
3:15 PM 66.2 °F 26.6 °F 23% 30.00 in 10.0 mi ENE 19.6 mph - N/A   Clear
3:35 PM 66.2 °F 26.6 °F 23% 29.99 in 10.0 mi ENE 21.9 mph - N/A   Clear
3:55 PM 66.2 °F 26.6 °F 23% 29.99 in 10.0 mi ENE 19.6 mph 25.3 mph N/A   Clear
4:15 PM 66.2 °F 26.6 °F 23% 29.99 in 10.0 mi ENE 19.6 mph 23.0 mph N/A   Clear
4:35 PM 64.4 °F 26.6 °F 24% 29.99 in 10.0 mi ENE 15.0 mph - N/A   Clear
4:55 PM 64.4 °F 26.6 °F 24% 30.00 in 10.0 mi ENE 16.1 mph - N/A   Clear
5:15 PM 62.6 °F 24.8 °F 24% 29.99 in 10.0 mi ENE 13.8 mph - N/A   Clear
5:35 PM 60.8 °F 26.6 °F 27% 30.00 in 10.0 mi ENE 13.8 mph - N/A   Clear
5:55 PM 60.8 °F 26.6 °F 27% 30.00 in 10.0 mi ENE 12.7 mph - N/A   Clear
6:15 PM 60.8 °F 26.6 °F 27% 30.00 in 10.0 mi ENE 17.3 mph 21.9 mph N/A   Clear
6:35 PM 60.8 °F 26.6 °F 27% 30.00 in 10.0 mi ENE 15.0 mph - N/A   Clear
6:55 PM 59.0 °F 26.6 °F 29% 30.01 in 10.0 mi ENE 12.7 mph - N/A   Clear
7:15 PM 59.0 °F 26.6 °F 29% 30.01 in 10.0 mi ENE 12.7 mph - N/A   Clear
7:35 PM 57.2 °F 26.6 °F 31% 30.02 in 10.0 mi ENE 11.5 mph - N/A   Clear
7:55 PM 57.2 °F 26.6 °F 31% 30.02 in 10.0 mi ENE 10.4 mph - N/A   Clear
8:15 PM 55.4 °F 28.4 °F 36% 30.02 in 10.0 mi NE 10.4 mph - N/A   Clear
8:35 PM 57.2 °F 28.4 °F 33% 30.02 in 10.0 mi ENE 10.4 mph - N/A   Clear
8:55 PM 57.2 °F 26.6 °F 31% 30.03 in 10.0 mi ENE 11.5 mph - N/A   Clear
9:15 PM 55.4 °F 26.6 °F 33% 30.03 in 10.0 mi ENE 15.0 mph - N/A   Clear
9:35 PM 55.4 °F 26.6 °F 33% 30.02 in 10.0 mi ENE 15.0 mph - N/A   Clear
9:55 PM 57.2 °F 26.6 °F 31% 30.03 in 10.0 mi ENE 16.1 mph - N/A   Clear
10:15 PM 55.4 °F 26.6 °F 33% 30.03 in 10.0 mi ENE 15.0 mph - N/A   Clear
10:35 PM 55.4 °F 26.6 °F 33% 30.03 in 10.0 mi ENE 13.8 mph - N/A   Clear
10:55 PM 55.4 °F 26.6 °F 33% 30.03 in 10.0 mi ENE 11.5 mph - N/A   Clear
11:15 PM 53.6 °F 26.6 °F 35% 30.04 in 10.0 mi ENE 11.5 mph - N/A   Clear
11:35 PM 53.6 °F 26.6 °F 35% 30.04 in 10.0 mi ENE 10.4 mph - N/A   Clear
11:55 PM 53.6 °F 26.6 °F 35% 30.04 in 10.0 mi ENE 12.7 mph - N/A   Clear